createdAt,value
2023-12-13T00:00:29.265Z,7.55
2023-12-13T00:02:56.032Z,7.77
2023-12-13T00:05:22.993Z,7.81
2023-12-13T00:07:49.728Z,7.80
2023-12-13T00:10:16.482Z,7.39
2023-12-13T00:12:43.139Z,7.66
2023-12-13T00:15:09.995Z,7.70
2023-12-13T00:17:36.954Z,7.75
2023-12-13T00:20:03.868Z,7.05
2023-12-13T00:22:30.667Z,7.46
2023-12-13T00:24:57.485Z,7.06
2023-12-13T00:27:24.151Z,6.91
2023-12-13T00:29:50.801Z,7.43
2023-12-13T00:32:17.476Z,7.22
2023-12-13T00:34:44.163Z,7.60
2023-12-13T00:37:10.838Z,7.82
2023-12-13T00:39:37.545Z,7.92
2023-12-13T00:42:04.384Z,7.90
2023-12-13T00:44:31.171Z,7.60
2023-12-13T00:46:57.899Z,7.67
2023-12-13T00:49:24.566Z,7.56
2023-12-13T00:51:51.377Z,7.78
2023-12-13T00:54:18.309Z,7.64
2023-12-13T00:56:45.127Z,7.86
2023-12-13T00:59:11.781Z,8.03
2023-12-13T01:01:38.565Z,7.96
2023-12-13T01:04:05.239Z,8.13
2023-12-13T01:06:31.909Z,8.04
2023-12-13T01:08:58.608Z,7.87
2023-12-13T01:11:25.401Z,7.48
2023-12-13T01:13:52.236Z,7.84
2023-12-13T01:16:19.152Z,7.84
2023-12-13T01:18:46.033Z,7.49
2023-12-13T01:21:12.706Z,7.41
2023-12-13T01:23:39.596Z,7.59
2023-12-13T01:26:06.445Z,7.46
2023-12-13T01:28:33.184Z,7.61
2023-12-13T01:31:00.146Z,7.72
2023-12-13T01:33:27.174Z,7.35
2023-12-13T01:35:53.978Z,7.12
2023-12-13T01:38:20.700Z,7.56
2023-12-13T01:41:10.077Z,7.87
2023-12-13T01:43:34.034Z,7.71
2023-12-13T01:46:00.823Z,8.02
2023-12-13T01:48:27.499Z,7.46
2023-12-13T01:50:54.348Z,7.36
2023-12-13T01:53:22.251Z,7.35
2023-12-13T01:55:49.053Z,7.03
2023-12-13T01:58:15.830Z,7.49
2023-12-13T02:00:42.550Z,6.94
2023-12-13T02:03:09.306Z,7.34
2023-12-13T02:05:36.093Z,7.80
2023-12-13T02:08:02.786Z,6.99
2023-12-13T02:10:29.517Z,7.58
2023-12-13T02:12:56.222Z,7.88
2023-12-13T02:15:22.865Z,7.87
2023-12-13T02:17:49.710Z,8.01
2023-12-13T02:20:16.436Z,8.05
2023-12-13T02:22:43.297Z,8.07
2023-12-13T02:25:09.970Z,8.10
2023-12-13T02:27:37.089Z,8.08
2023-12-13T02:30:03.798Z,8.18
2023-12-13T02:32:30.471Z,8.22
2023-12-13T02:34:57.295Z,8.23
2023-12-13T02:37:24.148Z,8.00
2023-12-13T02:39:50.780Z,7.87
2023-12-13T02:42:17.471Z,8.01
2023-12-13T02:44:44.237Z,8.15
2023-12-13T02:47:10.989Z,8.16
2023-12-13T02:49:38.000Z,8.41
2023-12-13T02:52:04.633Z,8.20
2023-12-13T02:54:31.480Z,8.22
2023-12-13T02:56:58.290Z,8.00
2023-12-13T02:59:24.969Z,8.09
2023-12-13T03:01:51.769Z,8.17
2023-12-13T03:31:41.863Z,7.92
2023-12-13T03:34:08.754Z,7.55
2023-12-13T03:36:35.567Z,7.18
2023-12-13T03:39:02.228Z,7.60
2023-12-13T03:41:28.825Z,7.46
2023-12-13T03:43:55.476Z,7.97
2023-12-13T03:46:22.238Z,8.18
2023-12-13T03:48:49.035Z,8.04
2023-12-13T03:51:15.846Z,8.16
2023-12-13T03:53:42.547Z,8.57
2023-12-13T03:56:09.318Z,8.90
2023-12-13T03:58:35.972Z,8.64
2023-12-13T04:01:02.793Z,8.36
2023-12-13T04:03:29.577Z,8.01
2023-12-13T04:05:58.327Z,7.75
2023-12-13T04:08:24.974Z,8.22
2023-12-13T04:10:51.655Z,8.26
2023-12-13T04:13:18.282Z,8.05
2023-12-13T04:15:44.951Z,7.45
2023-12-13T04:18:11.563Z,7.82
2023-12-13T04:20:38.323Z,8.04
2023-12-13T04:23:04.950Z,8.04
2023-12-13T04:25:31.675Z,7.75
2023-12-13T04:27:58.291Z,8.09
2023-12-13T04:30:24.940Z,8.27
2023-12-13T04:32:51.629Z,8.19
2023-12-13T04:35:18.215Z,8.38
2023-12-13T04:37:44.895Z,8.01
2023-12-13T04:40:11.530Z,8.21
2023-12-13T04:42:38.154Z,8.25
2023-12-13T04:45:04.820Z,8.19
2023-12-13T04:47:31.565Z,8.46
2023-12-13T04:49:58.323Z,8.53
2023-12-13T04:52:25.070Z,8.81
2023-12-13T04:54:53.090Z,8.72
2023-12-13T04:57:20.464Z,8.80
2023-12-13T04:59:47.074Z,8.94
2023-12-13T05:02:13.684Z,8.94
2023-12-13T05:04:40.341Z,8.91
2023-12-13T05:07:07.014Z,8.88
2023-12-13T05:09:33.637Z,8.66
2023-12-13T05:12:00.216Z,8.82
2023-12-13T05:14:26.875Z,8.99
2023-12-13T05:16:53.572Z,8.89
2023-12-13T05:19:20.260Z,8.49
2023-12-13T05:21:46.947Z,8.68
2023-12-13T05:24:13.511Z,8.60
2023-12-13T05:26:40.113Z,8.61
2023-12-13T05:29:06.758Z,8.65
2023-12-13T05:31:33.388Z,8.72
2023-12-13T05:34:00.055Z,8.31
2023-12-13T05:36:26.718Z,8.35
2023-12-13T05:38:53.364Z,8.43
2023-12-13T05:41:19.990Z,8.23
2023-12-13T05:43:46.672Z,7.71
2023-12-13T05:46:13.333Z,7.91
2023-12-13T05:48:40.119Z,7.70
2023-12-13T05:51:06.897Z,7.34
2023-12-13T05:53:33.563Z,7.03
2023-12-13T05:56:00.296Z,7.10
2023-12-13T05:58:27.067Z,7.47
2023-12-13T06:00:53.719Z,7.89
2023-12-13T06:03:20.416Z,7.72
2023-12-13T06:05:47.219Z,7.67
2023-12-13T06:08:13.880Z,7.92
2023-12-13T06:10:40.477Z,8.22
2023-12-13T06:13:07.191Z,8.37
2023-12-13T06:15:33.920Z,8.38
2023-12-13T06:18:00.744Z,8.36
2023-12-13T06:20:27.497Z,8.31
2023-12-13T06:22:54.140Z,8.22
2023-12-13T06:25:20.817Z,8.28
2023-12-13T06:27:47.449Z,8.35
2023-12-13T06:30:14.080Z,8.26
2023-12-13T06:32:40.815Z,8.35
2023-12-13T06:35:07.544Z,8.37
2023-12-13T06:37:34.318Z,8.35
2023-12-13T06:40:01.125Z,8.39
2023-12-13T06:42:27.830Z,8.43
2023-12-13T06:44:54.419Z,8.48
2023-12-13T06:47:21.065Z,8.47
2023-12-13T06:49:47.794Z,8.48
2023-12-13T06:52:14.430Z,8.51
2023-12-13T06:54:41.342Z,8.50
2023-12-13T06:57:08.006Z,8.48
2023-12-13T06:59:34.638Z,8.46
2023-12-13T07:02:01.271Z,8.47
2023-12-13T07:04:28.883Z,8.48
2023-12-13T07:06:55.802Z,8.56
2023-12-13T07:09:22.489Z,8.46
2023-12-13T07:11:49.178Z,8.41
2023-12-13T07:14:15.751Z,8.51
2023-12-13T07:16:42.418Z,8.55
2023-12-13T07:19:09.129Z,8.51
2023-12-13T07:21:35.830Z,8.49
2023-12-13T07:24:02.408Z,8.51
2023-12-13T07:26:29.239Z,8.64
2023-12-13T07:28:55.944Z,8.74
2023-12-13T07:31:22.666Z,8.61
2023-12-13T07:33:49.436Z,8.44
2023-12-13T07:36:16.157Z,8.43
2023-12-13T07:38:42.961Z,8.48
2023-12-13T07:41:09.670Z,8.61
2023-12-13T07:43:36.279Z,8.65
2023-12-13T07:46:02.936Z,8.60
2023-12-13T07:48:31.244Z,8.61
2023-12-13T07:50:58.264Z,8.59
2023-12-13T07:53:25.014Z,8.01
2023-12-13T07:55:51.853Z,8.12
2023-12-13T07:58:18.535Z,8.37
2023-12-13T08:00:45.181Z,8.60
2023-12-13T08:03:11.880Z,8.53
2023-12-13T08:05:38.692Z,8.59
2023-12-13T08:08:05.363Z,8.73
2023-12-13T08:10:32.031Z,8.58
2023-12-13T08:12:58.856Z,8.23
2023-12-13T08:15:25.469Z,8.03
2023-12-13T08:17:52.207Z,8.13
2023-12-13T08:20:18.958Z,8.41
2023-12-13T08:22:45.670Z,8.69
2023-12-13T08:25:12.443Z,8.47
2023-12-13T08:27:39.025Z,8.48
2023-12-13T08:30:05.788Z,8.18
2023-12-13T08:32:32.498Z,8.24
2023-12-13T08:34:59.178Z,8.61
2023-12-13T08:37:25.819Z,8.69
2023-12-13T08:39:52.484Z,8.14
2023-12-13T08:42:19.102Z,8.50
2023-12-13T08:44:45.726Z,8.60
2023-12-13T08:47:12.351Z,8.72
2023-12-13T08:49:38.992Z,8.70
2023-12-13T08:52:05.781Z,8.87
2023-12-13T08:54:32.464Z,8.76
2023-12-13T08:56:59.067Z,8.81
2023-12-13T08:59:25.737Z,8.88
2023-12-13T09:01:52.471Z,8.87
2023-12-13T09:04:19.136Z,9.00
2023-12-13T09:06:45.988Z,9.06
2023-12-13T09:09:12.685Z,9.12
2023-12-13T09:11:39.276Z,8.97
2023-12-13T09:14:05.866Z,9.10
2023-12-13T09:16:32.640Z,8.97
2023-12-13T09:18:59.272Z,8.84
2023-12-13T09:21:25.938Z,9.08
2023-12-13T09:23:52.640Z,9.12
2023-12-13T09:26:19.246Z,8.97
2023-12-13T09:28:45.841Z,8.90
2023-12-13T09:31:12.534Z,9.04
2023-12-13T09:33:39.204Z,9.12
2023-12-13T09:36:10.002Z,9.21
2023-12-13T09:38:36.677Z,9.37
2023-12-13T09:41:03.448Z,9.36
2023-12-13T09:43:30.152Z,9.30
2023-12-13T09:45:56.800Z,9.39
2023-12-13T09:48:23.670Z,9.33
2023-12-13T09:50:50.509Z,9.29
2023-12-13T09:53:17.190Z,9.29
2023-12-13T09:55:43.786Z,9.46
2023-12-13T09:58:10.594Z,9.47
2023-12-13T10:00:37.302Z,9.44
2023-12-13T10:03:04.268Z,9.50
2023-12-13T10:05:31.020Z,9.39
2023-12-13T10:07:57.721Z,8.92
2023-12-13T10:10:24.328Z,9.24
2023-12-13T10:12:50.901Z,9.47
2023-12-13T10:15:17.625Z,9.35
2023-12-13T10:17:44.329Z,9.41
2023-12-13T10:20:10.955Z,9.37
2023-12-13T10:22:38.272Z,9.64
2023-12-13T10:25:04.953Z,9.53
2023-12-13T10:27:31.767Z,9.55
2023-12-13T10:29:58.469Z,9.64
2023-12-13T10:32:25.079Z,9.61
2023-12-13T10:34:51.684Z,9.33
2023-12-13T10:37:18.383Z,9.37
2023-12-13T10:39:44.988Z,9.55
2023-12-13T10:42:11.591Z,9.36
2023-12-13T10:44:38.456Z,9.40
2023-12-13T10:47:05.077Z,9.38
2023-12-13T10:49:31.697Z,9.56
2023-12-13T10:51:58.361Z,9.59
2023-12-13T10:54:25.034Z,9.59
2023-12-13T10:56:51.637Z,9.33
2023-12-13T10:59:18.278Z,9.11
2023-12-13T11:01:45.017Z,8.91
2023-12-13T11:04:11.674Z,9.22
2023-12-13T11:06:38.383Z,9.43
2023-12-13T11:09:05.053Z,9.13
2023-12-13T11:11:31.935Z,9.03
2023-12-13T11:13:58.580Z,8.92
2023-12-13T11:16:25.280Z,9.27
2023-12-13T11:18:54.957Z,9.09
2023-12-13T11:21:22.662Z,9.27
2023-12-13T11:23:49.311Z,9.48
2023-12-13T11:26:15.925Z,9.59
2023-12-13T11:28:42.610Z,9.48
2023-12-13T11:31:10.912Z,9.67
2023-12-13T11:33:38.183Z,9.51
2023-12-13T11:36:04.830Z,9.48
2023-12-13T11:38:31.451Z,9.54
2023-12-13T11:40:58.206Z,9.65
2023-12-13T11:43:24.943Z,9.72
2023-12-13T11:45:51.699Z,9.72
2023-12-13T11:48:18.462Z,9.76
2023-12-13T11:50:45.310Z,9.81
2023-12-13T11:53:11.955Z,9.86
2023-12-13T11:55:38.592Z,9.89
2023-12-13T11:58:05.279Z,9.86
2023-12-13T12:00:31.872Z,9.97
2023-12-13T12:02:58.452Z,9.95
2023-12-13T12:05:25.348Z,9.97
2023-12-13T12:07:52.218Z,10.16
2023-12-13T12:10:18.986Z,10.07
2023-12-13T12:12:45.673Z,9.91
2023-12-13T12:15:12.268Z,9.86
2023-12-13T12:17:39.180Z,9.91
2023-12-13T12:20:05.999Z,9.64
2023-12-13T12:22:32.662Z,9.69
2023-12-13T12:24:59.311Z,9.73
2023-12-13T12:27:25.978Z,9.94
2023-12-13T12:29:53.354Z,10.00
2023-12-13T12:32:20.372Z,9.94
2023-12-13T12:34:47.039Z,9.91
2023-12-13T12:37:15.459Z,9.91
2023-12-13T12:39:42.755Z,9.90
2023-12-13T12:42:10.436Z,10.01
2023-12-13T12:44:37.202Z,9.79
2023-12-13T12:47:03.846Z,9.86
2023-12-13T12:49:30.602Z,9.87
2023-12-13T12:51:57.269Z,9.75
2023-12-13T12:54:23.883Z,9.85
2023-12-13T12:56:50.523Z,9.61
2023-12-13T12:59:17.213Z,9.79
2023-12-13T13:01:43.811Z,9.71
2023-12-13T13:04:10.555Z,9.63
2023-12-13T13:06:37.170Z,9.63
2023-12-13T13:09:03.773Z,9.64
2023-12-13T13:11:30.404Z,9.60
2023-12-13T13:13:57.286Z,9.69
2023-12-13T13:16:23.970Z,9.86
2023-12-13T13:18:50.715Z,9.82
2023-12-13T13:21:17.405Z,9.48
2023-12-13T13:23:44.309Z,9.11
2023-12-13T13:26:10.932Z,9.46
2023-12-13T13:28:37.590Z,9.53
2023-12-13T13:31:04.279Z,9.57
2023-12-13T13:33:31.213Z,9.55
2023-12-13T13:35:57.922Z,9.62
2023-12-13T13:38:24.540Z,9.78
2023-12-13T13:40:51.404Z,9.66
2023-12-13T13:43:18.047Z,9.76
2023-12-13T13:45:44.693Z,9.86
2023-12-13T13:48:11.405Z,9.80
2023-12-13T13:50:38.145Z,9.77
2023-12-13T13:53:04.860Z,9.52
2023-12-13T13:55:31.584Z,9.69
2023-12-13T13:57:58.200Z,9.88
2023-12-13T14:00:24.850Z,9.97
2023-12-13T14:02:51.589Z,9.98
2023-12-13T14:05:18.250Z,10.00
2023-12-13T14:07:44.960Z,9.93
2023-12-13T14:10:11.654Z,9.92
2023-12-13T14:12:38.348Z,9.74
2023-12-13T14:15:05.084Z,9.91
2023-12-13T14:17:31.948Z,9.70
2023-12-13T14:19:58.724Z,8.98
2023-12-13T14:22:25.543Z,9.29
2023-12-13T14:24:52.209Z,9.39
2023-12-13T14:27:18.955Z,9.63
2023-12-13T14:29:45.703Z,9.51
2023-12-13T14:32:12.368Z,9.64
2023-12-13T14:34:39.080Z,9.74
2023-12-13T14:37:05.721Z,9.74
2023-12-13T14:39:32.375Z,9.81
2023-12-13T14:41:58.962Z,9.71
2023-12-13T14:44:25.567Z,9.75
2023-12-13T14:46:52.569Z,9.55
2023-12-13T14:49:19.457Z,9.57
2023-12-13T14:51:46.206Z,9.62
2023-12-13T14:54:12.837Z,9.74
2023-12-13T14:56:39.446Z,9.80
2023-12-13T14:59:06.155Z,9.65
2023-12-13T15:01:33.070Z,9.73
2023-12-13T15:03:59.806Z,10.09
2023-12-13T15:06:26.401Z,9.64
2023-12-13T15:08:53.081Z,9.50
2023-12-13T15:11:19.717Z,9.54
2023-12-13T15:13:46.414Z,9.67
2023-12-13T15:16:13.088Z,9.70
2023-12-13T15:18:39.847Z,9.65
2023-12-13T15:21:06.494Z,9.58
2023-12-13T15:23:33.115Z,9.43
2023-12-13T15:26:00.114Z,9.41
2023-12-13T15:28:26.964Z,9.52
2023-12-13T15:30:53.698Z,9.74
2023-12-13T15:33:20.509Z,9.70
2023-12-13T15:35:47.146Z,9.43
2023-12-13T15:38:13.824Z,9.57
2023-12-13T15:40:40.809Z,9.62
2023-12-13T15:43:07.399Z,9.83
2023-12-13T15:45:34.032Z,9.54
2023-12-13T15:48:00.678Z,9.43
2023-12-13T15:50:27.290Z,9.35
2023-12-13T15:52:54.106Z,9.40
2023-12-13T15:55:20.828Z,9.12
2023-12-13T15:57:47.471Z,9.26
2023-12-13T16:00:14.118Z,9.27
2023-12-13T16:02:40.765Z,9.24
2023-12-13T16:05:07.535Z,9.25
2023-12-13T16:07:34.637Z,9.27
2023-12-13T16:10:01.499Z,9.44
2023-12-13T16:12:28.086Z,9.57
2023-12-13T16:14:54.734Z,9.61
2023-12-13T16:17:21.329Z,9.71
2023-12-13T16:19:48.010Z,9.77
2023-12-13T16:22:14.714Z,9.64
2023-12-13T16:24:41.313Z,9.64
2023-12-13T16:27:07.977Z,9.58
2023-12-13T16:29:34.678Z,9.56
2023-12-13T16:32:01.394Z,9.66
2023-12-13T16:34:28.174Z,9.63
2023-12-13T16:36:54.900Z,9.72
2023-12-13T16:39:21.509Z,9.64
2023-12-13T16:41:48.159Z,9.34
2023-12-13T16:44:14.878Z,9.51
2023-12-13T16:46:41.497Z,9.53
2023-12-13T16:49:08.382Z,9.58
2023-12-13T16:51:35.064Z,9.77
2023-12-13T16:54:01.712Z,9.49
2023-12-13T16:56:28.287Z,9.44
2023-12-13T16:58:54.931Z,9.08
2023-12-13T17:01:21.613Z,9.10
2023-12-13T17:03:48.382Z,9.22
2023-12-13T17:06:15.114Z,8.97
2023-12-13T17:08:41.896Z,9.22
2023-12-13T17:11:08.591Z,9.54
2023-12-13T17:13:35.357Z,9.53
2023-12-13T17:16:02.029Z,9.74
2023-12-13T17:18:28.708Z,9.46
2023-12-13T17:20:55.359Z,9.57
2023-12-13T17:23:22.008Z,9.55
2023-12-13T17:25:48.670Z,9.40
2023-12-13T17:28:15.350Z,9.15
2023-12-13T17:30:41.964Z,9.19
2023-12-13T17:33:08.808Z,9.08
2023-12-13T17:35:35.564Z,9.09
2023-12-13T17:38:02.177Z,9.07
2023-12-13T17:40:28.831Z,8.96
2023-12-13T17:42:55.510Z,8.99
2023-12-13T17:45:22.115Z,9.11
2023-12-13T17:47:48.779Z,9.35
2023-12-13T17:50:15.664Z,9.26
2023-12-13T17:52:42.430Z,8.91
2023-12-13T17:55:09.041Z,8.78
2023-12-13T17:57:35.860Z,8.51
2023-12-13T18:00:02.466Z,8.25
2023-12-13T18:02:29.073Z,8.76
2023-12-13T18:04:55.752Z,9.19
2023-12-13T18:07:22.547Z,9.14
2023-12-13T18:09:49.257Z,9.05
2023-12-13T18:12:15.920Z,8.78
2023-12-13T18:14:42.646Z,9.03
2023-12-13T18:17:09.301Z,9.01
2023-12-13T18:19:36.255Z,9.10
2023-12-13T18:22:02.911Z,8.97
2023-12-13T18:24:29.518Z,9.19
2023-12-13T18:26:56.150Z,9.22
2023-12-13T18:29:22.766Z,9.22
2023-12-13T18:31:49.397Z,8.79
2023-12-13T18:34:16.106Z,8.86
2023-12-13T18:36:42.720Z,9.05
2023-12-13T18:39:09.345Z,9.23
2023-12-13T18:41:36.010Z,9.13
2023-12-13T18:44:02.691Z,9.02
2023-12-13T18:46:29.330Z,9.07
2023-12-13T18:48:55.980Z,9.07
2023-12-13T18:51:22.592Z,9.10
2023-12-13T18:53:49.196Z,9.09
2023-12-13T18:56:15.816Z,8.93
2023-12-13T18:58:42.476Z,8.99
2023-12-13T19:01:09.163Z,8.87
2023-12-13T19:03:35.962Z,8.93
2023-12-13T19:06:02.668Z,8.98
2023-12-13T19:08:29.318Z,8.92
2023-12-13T19:10:55.969Z,8.97
2023-12-13T19:13:22.636Z,9.15
2023-12-13T19:15:49.270Z,9.12
2023-12-13T19:18:16.199Z,9.03
2023-12-13T19:20:42.888Z,8.97
2023-12-13T19:23:09.618Z,8.92
2023-12-13T19:25:36.333Z,8.97
2023-12-13T19:28:02.957Z,8.84
2023-12-13T19:30:29.524Z,8.81
2023-12-13T19:32:56.233Z,8.72
2023-12-13T19:35:22.929Z,8.73
2023-12-13T19:37:49.559Z,8.58
2023-12-13T19:40:16.211Z,8.66
2023-12-13T19:42:42.837Z,8.67
2023-12-13T19:45:09.475Z,8.71
2023-12-13T19:47:36.363Z,8.77
2023-12-13T19:50:03.243Z,8.68
2023-12-13T19:52:29.898Z,8.68
2023-12-13T19:54:56.553Z,8.79
2023-12-13T19:57:23.170Z,8.92
2023-12-13T19:59:49.765Z,8.77
2023-12-13T20:02:16.453Z,8.75
2023-12-13T20:04:43.140Z,8.78
2023-12-13T20:07:09.785Z,8.49
2023-12-13T20:09:36.438Z,8.63
2023-12-13T20:12:03.045Z,8.63
2023-12-13T20:14:29.692Z,8.23
2023-12-13T20:16:56.402Z,8.31
2023-12-13T20:19:22.997Z,8.54
2023-12-13T20:21:49.565Z,8.54
2023-12-13T20:24:16.197Z,8.73
2023-12-13T20:26:42.811Z,8.21
2023-12-13T20:29:09.450Z,8.07
2023-12-13T20:31:36.247Z,7.83
2023-12-13T20:34:02.899Z,7.66
2023-12-13T20:36:29.523Z,8.19
2023-12-13T20:38:56.182Z,8.16
2023-12-13T20:41:22.783Z,8.14
2023-12-13T20:43:49.408Z,7.98
2023-12-13T20:46:16.115Z,8.39
2023-12-13T20:48:42.707Z,8.21
2023-12-13T20:51:09.290Z,8.31
2023-12-13T20:53:35.930Z,8.21
2023-12-13T20:56:02.568Z,8.27
2023-12-13T20:58:29.182Z,8.45
2023-12-13T21:00:55.904Z,8.16
2023-12-13T21:03:22.619Z,8.25
2023-12-13T21:05:49.254Z,8.32
2023-12-13T21:08:15.914Z,8.41
2023-12-13T21:10:42.572Z,8.57
2023-12-13T21:13:09.173Z,8.62
2023-12-13T21:15:35.824Z,8.34
2023-12-13T21:18:02.629Z,8.48
2023-12-13T21:20:29.292Z,8.37
2023-12-13T21:22:57.010Z,8.57
2023-12-13T21:25:24.500Z,8.55
2023-12-13T21:27:51.085Z,8.61
2023-12-13T21:30:17.771Z,8.73
2023-12-13T21:32:44.493Z,8.70
2023-12-13T21:35:11.292Z,8.65
2023-12-13T21:37:38.068Z,8.80
2023-12-13T21:40:04.700Z,8.80
2023-12-13T21:42:31.269Z,8.78
2023-12-13T21:44:57.922Z,8.81
2023-12-13T21:47:24.736Z,8.75
2023-12-13T21:49:51.431Z,8.90
2023-12-13T21:52:18.109Z,9.07
2023-12-13T21:54:44.710Z,8.96
2023-12-13T21:57:11.292Z,8.92
2023-12-13T21:59:37.979Z,8.99
2023-12-13T22:02:04.608Z,8.99
2023-12-13T22:04:31.282Z,8.99
2023-12-13T22:06:57.955Z,9.01
2023-12-13T22:09:24.547Z,9.02
2023-12-13T22:11:51.131Z,8.93
2023-12-13T22:14:17.770Z,8.93
2023-12-13T22:16:46.971Z,8.90
2023-12-13T22:19:15.098Z,8.74
2023-12-13T22:21:41.766Z,8.79
2023-12-13T22:24:08.352Z,8.88
2023-12-13T22:26:34.935Z,8.90
2023-12-13T22:29:01.616Z,8.89
2023-12-13T22:31:30.676Z,8.86
2023-12-13T22:33:57.354Z,8.95
2023-12-13T22:36:24.014Z,8.90
2023-12-13T22:38:50.810Z,8.89
2023-12-13T22:41:17.409Z,9.00
2023-12-13T22:43:44.087Z,9.01
2023-12-13T22:46:10.706Z,8.98
2023-12-13T22:48:37.321Z,8.97
2023-12-13T22:51:03.961Z,8.94
2023-12-13T22:53:30.569Z,8.96
2023-12-13T22:55:57.161Z,8.95
2023-12-13T22:58:23.839Z,8.93
2023-12-13T23:00:50.462Z,8.66
2023-12-13T23:03:17.143Z,8.34
2023-12-13T23:05:43.795Z,8.53
2023-12-13T23:08:10.400Z,8.68
2023-12-13T23:10:37.127Z,8.78
2023-12-13T23:13:03.795Z,8.83
2023-12-13T23:15:30.408Z,8.84
2023-12-13T23:17:57.110Z,8.75
2023-12-13T23:20:23.828Z,8.89
2023-12-13T23:22:50.506Z,8.95
2023-12-13T23:25:17.139Z,9.04
2023-12-13T23:27:43.793Z,9.04
2023-12-13T23:30:10.537Z,9.00
2023-12-13T23:32:37.538Z,9.00
2023-12-13T23:35:04.473Z,8.86
2023-12-13T23:37:31.149Z,8.93
2023-12-13T23:39:57.808Z,8.97
2023-12-13T23:42:24.484Z,8.91
2023-12-13T23:44:51.176Z,8.91
2023-12-13T23:47:17.764Z,8.91
2023-12-13T23:49:44.658Z,8.92
2023-12-13T23:52:11.316Z,8.83
2023-12-13T23:54:37.917Z,8.77
2023-12-13T23:57:04.572Z,8.86
2023-12-13T23:59:31.209Z,8.90
